CheckWX is a tool to help pilots better visualize weather data.  It is not intended as a substitute for an official pre-flight weather briefing.

09:34:15 UTC

KMQS METAR
Chester County G O Carlson Airport
Coatesville, Pennsylvania, USA
Current

19 mins ago

KMQS 180915Z AUTO 30011KT 10SM FEW033 08/03 A2981 RMK AO2
Observed
Oct-18 @ 09:15 UTC
Wind
  • 300° at 11 KTS
Visibility
10 SM
Flight Rules
VFR
Cloud Levels
  • Few at 3,300' AGL
Temperature
C / 46°F
Dewpoint
C / 37°F
Humidity
71%
Altimeter
29.81" Hg
Pressure
1009.52 hPa
Previous

39 mins ago

KMQS 180855Z AUTO 31008G14KT 10SM FEW033 08/03 A2980 RMK AO2
Observed
Oct-18 @ 08:55 UTC
Wind
  • 310° at 8 KTS
  • Gusting to 14 KTS
Visibility
10 SM
Flight Rules
VFR
Cloud Levels
  • Few at 3,300' AGL
Temperature
C / 46°F
Dewpoint
C / 37°F
Humidity
71%
Altimeter
29.8" Hg
Pressure
1009.12 hPa
Previous

59 mins ago

KMQS 180835Z AUTO 30010G17KT 10SM CLR 07/04 A2980 RMK AO2
Observed
Oct-18 @ 08:35 UTC
Wind
  • 300° at 10 KTS
  • Gusting to 17 KTS
Visibility
10 SM
Flight Rules
VFR
Cloud Levels
  • Clear skies
Temperature
C / 45°F
Dewpoint
C / 39°F
Humidity
81%
Altimeter
29.8" Hg
Pressure
1009.12 hPa